createdAt,value
2018-07-20T00:00:16.517Z,65.43
2018-07-20T00:02:10.818Z,65.05
2018-07-20T00:03:10.739Z,65.43
2018-07-20T00:05:04.040Z,64.66
2018-07-20T00:06:03.960Z,64.47
2018-07-20T00:07:57.254Z,64.76
2018-07-20T00:08:57.174Z,64.56
2018-07-20T00:10:50.476Z,64.76
2018-07-20T00:11:50.396Z,64.56
2018-07-20T00:13:43.679Z,64.47
2018-07-20T00:14:43.619Z,64.37
2018-07-20T00:16:36.959Z,63.89
2018-07-20T00:17:36.840Z,64.08
2018-07-20T00:19:30.111Z,63.99
2018-07-20T00:20:30.054Z,63.99
2018-07-20T00:22:23.455Z,64.50
2018-07-20T00:23:23.273Z,64.08
2018-07-20T00:25:16.575Z,64.18
2018-07-20T00:26:16.499Z,64.18
2018-07-20T00:28:09.773Z,64.08
2018-07-20T00:29:09.713Z,63.60
2018-07-20T00:31:03.015Z,63.51
2018-07-20T00:32:02.933Z,63.51
2018-07-20T00:33:56.220Z,63.51
2018-07-20T00:34:56.158Z,63.89
2018-07-20T00:36:49.458Z,63.31
2018-07-20T00:37:49.379Z,63.64
2018-07-20T00:39:42.663Z,63.82
2018-07-20T00:40:42.603Z,63.31
2018-07-20T00:42:35.904Z,63.51
2018-07-20T00:43:35.820Z,63.31
2018-07-20T00:45:29.130Z,63.22
2018-07-20T00:46:29.047Z,63.79
2018-07-20T00:48:22.354Z,63.60
2018-07-20T00:49:22.293Z,63.70
2018-07-20T00:51:15.601Z,63.70
2018-07-20T00:52:15.517Z,64.08
2018-07-20T00:54:08.801Z,64.18
2018-07-20T00:55:08.740Z,64.08
2018-07-20T00:57:02.040Z,63.99
2018-07-20T00:58:01.963Z,64.76
2018-07-20T00:59:55.244Z,64.66
2018-07-20T01:00:55.188Z,64.86
2018-07-20T01:02:48.483Z,64.53
2018-07-20T01:03:48.404Z,64.37
2018-07-20T01:05:41.707Z,65.14
2018-07-20T01:06:41.628Z,65.40
2018-07-20T01:08:35.012Z,65.01
2018-07-20T01:09:34.839Z,65.20
2018-07-20T01:11:28.140Z,65.30
2018-07-20T01:12:28.061Z,65.11
2018-07-20T01:14:21.342Z,65.78
2018-07-20T01:15:21.281Z,65.78
2018-07-20T01:17:15.430Z,66.07
2018-07-20T01:18:15.350Z,66.27
2018-07-20T01:20:08.634Z,66.55
2018-07-20T01:21:08.572Z,66.27
2018-07-20T01:23:01.871Z,66.27
2018-07-20T01:24:01.792Z,66.27
2018-07-20T01:25:55.072Z,67.03
2018-07-20T01:26:55.012Z,67.03
2018-07-20T01:28:48.374Z,66.74
2018-07-20T01:29:48.293Z,67.03
2018-07-20T01:31:41.591Z,66.84
2018-07-20T01:32:41.514Z,66.94
2018-07-20T01:34:34.794Z,67.00
2018-07-20T01:35:34.734Z,67.00
2018-07-20T01:37:28.033Z,67.68
2018-07-20T01:38:27.953Z,67.48
2018-07-20T01:40:21.226Z,67.38
2018-07-20T01:41:21.165Z,67.58
2018-07-20T01:43:14.464Z,68.25
2018-07-20T01:44:14.391Z,68.15
2018-07-20T01:46:07.665Z,68.35
2018-07-20T01:47:07.607Z,68.44
2018-07-20T01:49:00.905Z,68.44
2018-07-20T01:50:00.825Z,68.12
2018-07-20T01:51:54.127Z,68.51
2018-07-20T01:52:54.038Z,68.63
2018-07-20T01:54:47.420Z,68.63
2018-07-20T01:55:47.259Z,68.63
2018-07-20T01:57:40.551Z,68.70
2018-07-20T01:58:40.474Z,69.12
2018-07-20T02:00:33.752Z,69.31
2018-07-20T02:01:33.691Z,69.21
2018-07-20T02:03:26.991Z,68.89
2018-07-20T02:04:26.910Z,68.98
2018-07-20T02:06:20.190Z,69.75
2018-07-20T02:07:20.128Z,69.56
2018-07-20T02:09:13.425Z,69.75
2018-07-20T02:10:13.346Z,70.04
2018-07-20T02:12:06.623Z,69.18
2018-07-20T02:13:06.563Z,69.75
2018-07-20T02:14:59.864Z,70.33
2018-07-20T02:15:59.780Z,70.43
2018-07-20T02:17:53.193Z,70.58
2018-07-20T02:18:52.989Z,71.45
2018-07-20T02:20:46.351Z,71.35
2018-07-20T02:21:46.291Z,71.45
2018-07-20T02:23:39.589Z,71.64
2018-07-20T02:24:39.507Z,71.64
2018-07-20T02:26:32.786Z,71.64
2018-07-20T02:27:32.724Z,71.93
2018-07-20T02:29:26.027Z,72.31
2018-07-20T02:30:25.942Z,72.31
2018-07-20T02:32:19.223Z,72.31
2018-07-20T02:33:19.158Z,72.31
2018-07-20T02:35:12.455Z,72.31
2018-07-20T02:36:12.375Z,72.60
2018-07-20T02:38:06.263Z,72.99
2018-07-20T02:39:05.586Z,72.99
2018-07-20T02:40:58.881Z,72.89
2018-07-20T02:41:58.805Z,72.89
2018-07-20T02:43:52.097Z,72.89
2018-07-20T02:44:52.015Z,72.79
2018-07-20T02:46:45.293Z,72.79
2018-07-20T02:47:45.233Z,72.75
2018-07-20T02:49:38.528Z,72.66
2018-07-20T02:50:38.449Z,72.79
2018-07-20T02:52:31.732Z,72.69
2018-07-20T02:53:31.667Z,72.69
2018-07-20T02:55:24.964Z,72.89
2018-07-20T02:56:24.882Z,72.99
2018-07-20T02:58:18.153Z,72.89
2018-07-20T02:59:18.094Z,72.99
2018-07-20T03:01:11.388Z,72.60
2018-07-20T03:02:11.306Z,72.60
2018-07-20T03:04:04.618Z,73.52
2018-07-20T03:05:04.522Z,73.27
2018-07-20T03:06:57.800Z,73.52
2018-07-20T03:07:57.741Z,73.72
2018-07-20T03:09:51.037Z,74.01
2018-07-20T03:10:50.955Z,73.81
2018-07-20T03:12:44.236Z,74.68
2018-07-20T03:13:44.173Z,74.68
2018-07-20T03:15:37.574Z,74.10
2018-07-20T03:16:37.390Z,74.29
2018-07-20T03:18:30.656Z,74.39
2018-07-20T03:19:30.597Z,74.68
2018-07-20T03:21:23.892Z,75.25
2018-07-20T03:22:23.812Z,75.06
2018-07-20T03:24:17.141Z,75.54
2018-07-20T03:25:17.033Z,75.31
2018-07-20T03:27:10.369Z,75.50
2018-07-20T03:28:10.288Z,75.92
2018-07-20T03:30:03.585Z,76.17
2018-07-20T03:31:03.505Z,76.21
2018-07-20T03:32:56.861Z,76.27
2018-07-20T03:33:56.718Z,76.50
2018-07-20T03:35:50.015Z,76.27
2018-07-20T03:36:49.933Z,75.98
2018-07-20T03:38:43.313Z,75.70
2018-07-20T03:39:43.139Z,76.27
2018-07-20T03:41:36.440Z,76.02
2018-07-20T03:42:36.359Z,75.45
2018-07-20T03:44:29.634Z,75.82
2018-07-20T03:45:29.574Z,75.92
2018-07-20T03:47:22.871Z,76.21
2018-07-20T03:48:22.790Z,75.73
2018-07-20T03:50:16.069Z,75.45
2018-07-20T03:51:16.012Z,75.73
2018-07-20T03:53:09.306Z,75.25
2018-07-20T03:54:09.222Z,75.35
2018-07-20T03:56:02.524Z,75.35
2018-07-20T03:57:02.443Z,75.54
2018-07-20T03:58:55.825Z,75.45
2018-07-20T03:59:55.649Z,75.45
2018-07-20T04:01:48.947Z,75.54
2018-07-20T04:02:48.866Z,75.50
2018-07-20T04:04:42.749Z,75.50
2018-07-20T04:05:42.088Z,75.70
2018-07-20T04:07:35.383Z,75.70
2018-07-20T04:08:35.305Z,76.37
2018-07-20T04:10:28.586Z,75.98
2018-07-20T04:11:28.521Z,76.17
2018-07-20T04:13:21.817Z,76.37
2018-07-20T04:14:21.737Z,76.27
2018-07-20T04:16:15.034Z,76.17
2018-07-20T04:17:14.954Z,76.07
2018-07-20T04:19:08.231Z,76.31
2018-07-20T04:20:08.170Z,76.17
2018-07-20T04:22:01.467Z,76.12
2018-07-20T04:23:01.386Z,75.60
2018-07-20T04:24:54.664Z,75.54
2018-07-20T04:25:54.602Z,75.92
2018-07-20T04:27:48.899Z,76.02
2018-07-20T04:28:48.819Z,76.31
2018-07-20T04:30:42.100Z,75.54
2018-07-20T04:31:42.037Z,75.82
2018-07-20T04:33:35.331Z,75.82
2018-07-20T04:34:35.250Z,76.31
2018-07-20T04:36:28.568Z,76.31
2018-07-20T04:37:28.467Z,76.40
2018-07-20T04:39:21.748Z,76.21
2018-07-20T04:40:21.685Z,76.21
2018-07-20T04:42:14.985Z,76.40
2018-07-20T04:43:14.902Z,76.02
2018-07-20T04:45:08.181Z,75.82
2018-07-20T04:46:08.124Z,76.12
2018-07-20T04:48:01.523Z,75.82
2018-07-20T04:49:01.330Z,75.54
2018-07-20T04:50:54.608Z,75.92
2018-07-20T04:51:54.546Z,76.02
2018-07-20T04:53:47.845Z,76.02
2018-07-20T04:54:47.765Z,76.02
2018-07-20T04:56:41.041Z,76.02
2018-07-20T04:57:40.982Z,75.45
2018-07-20T04:59:34.374Z,75.54
2018-07-20T05:00:34.295Z,75.45
2018-07-20T05:02:27.590Z,75.35
2018-07-20T05:03:27.513Z,75.00
2018-07-20T05:05:20.791Z,75.20
2018-07-20T05:06:20.730Z,75.20
2018-07-20T05:08:15.020Z,75.20
2018-07-20T05:09:14.939Z,75.00
2018-07-20T05:11:08.218Z,74.62
2018-07-20T05:12:08.161Z,74.43
2018-07-20T05:14:01.460Z,73.37
2018-07-20T05:15:01.378Z,73.11
2018-07-20T05:16:54.659Z,73.31
2018-07-20T05:17:54.600Z,72.83
2018-07-20T05:19:47.910Z,72.54
2018-07-20T05:20:47.832Z,73.02
2018-07-20T05:22:41.115Z,72.83
2018-07-20T05:23:41.052Z,73.21
2018-07-20T05:25:34.373Z,72.64
2018-07-20T05:26:34.292Z,72.73
2018-07-20T05:28:27.583Z,72.92
2018-07-20T05:29:27.508Z,72.64
2018-07-20T05:31:20.791Z,72.34
2018-07-20T05:32:20.727Z,72.54
2018-07-20T05:34:14.033Z,72.77
2018-07-20T05:35:13.952Z,72.38
2018-07-20T05:37:07.233Z,72.19
2018-07-20T05:38:07.191Z,71.71
2018-07-20T05:40:00.477Z,72.00
2018-07-20T05:41:00.402Z,71.81
2018-07-20T05:42:53.688Z,72.00
2018-07-20T05:43:53.647Z,72.48
2018-07-20T05:45:46.922Z,71.91
2018-07-20T05:46:46.843Z,72.29
2018-07-20T05:48:40.137Z,72.00
2018-07-20T05:49:40.061Z,71.42
2018-07-20T05:51:33.342Z,70.94
2018-07-20T05:52:33.283Z,70.65
2018-07-20T05:54:26.584Z,70.65
2018-07-20T05:55:26.506Z,70.75
2018-07-20T05:57:19.792Z,70.75
2018-07-20T05:58:19.734Z,70.27
2018-07-20T06:00:13.036Z,70.94
2018-07-20T06:01:12.959Z,70.68
2018-07-20T06:03:07.240Z,70.11
2018-07-20T06:04:07.206Z,70.21
2018-07-20T06:06:00.484Z,69.63
2018-07-20T06:07:00.408Z,69.44
2018-07-20T06:08:53.701Z,69.53
2018-07-20T06:09:53.625Z,69.24
2018-07-20T06:11:46.911Z,69.47
2018-07-20T06:12:46.856Z,69.28
2018-07-20T06:14:40.169Z,69.18
2018-07-20T06:15:40.077Z,68.99
2018-07-20T06:17:33.362Z,68.93
2018-07-20T06:18:33.312Z,68.44
2018-07-20T06:20:27.606Z,67.49
2018-07-20T06:21:27.541Z,67.45
2018-07-20T06:23:20.816Z,68.16
2018-07-20T06:24:20.755Z,67.49
2018-07-20T06:26:14.071Z,67.10
2018-07-20T06:27:13.993Z,67.00
2018-07-20T06:29:07.277Z,66.17
2018-07-20T06:30:07.217Z,66.24
2018-07-20T06:32:00.524Z,65.69
2018-07-20T06:33:00.447Z,65.05
2018-07-20T06:34:53.752Z,62.99
2018-07-20T06:35:53.675Z,61.44
2018-07-20T06:37:46.966Z,61.64
2018-07-20T06:38:46.910Z,62.18
2018-07-20T06:40:40.227Z,64.11
2018-07-20T06:41:40.144Z,63.44
2018-07-20T06:43:33.435Z,62.70
2018-07-20T06:44:33.381Z,62.60
2018-07-20T06:46:26.689Z,62.02
2018-07-20T06:47:26.617Z,62.79
2018-07-20T06:49:19.906Z,62.89
2018-07-20T06:50:19.852Z,62.70
2018-07-20T06:52:13.162Z,62.63
2018-07-20T06:53:13.089Z,61.96
2018-07-20T06:55:06.385Z,62.44
2018-07-20T06:56:06.328Z,61.96
2018-07-20T06:57:59.644Z,61.02
2018-07-20T06:58:59.573Z,59.99
2018-07-20T07:00:52.884Z,59.02
2018-07-20T07:01:52.808Z,59.02
2018-07-20T15:54:30.116Z,36.27
2018-07-20T15:55:29.981Z,36.27
2018-07-20T15:57:23.292Z,36.96
2018-07-20T15:58:23.220Z,36.39
2018-07-20T16:00:16.518Z,36.19
2018-07-20T16:01:16.465Z,36.08
2018-07-20T16:03:09.784Z,36.18
2018-07-20T16:04:09.711Z,35.69
2018-07-20T16:06:03.147Z,36.25
2018-07-20T16:07:02.958Z,36.25
2018-07-20T16:08:56.361Z,36.25
2018-07-20T16:09:56.307Z,36.84
2018-07-20T16:11:49.626Z,36.84
2018-07-20T16:12:49.551Z,37.13
2018-07-20T16:14:42.851Z,37.04
2018-07-20T16:15:42.796Z,35.96
2018-07-20T16:17:36.116Z,35.00
2018-07-20T16:18:36.043Z,34.89
2018-07-20T16:20:29.340Z,35.28
2018-07-20T16:21:29.288Z,35.57
2018-07-20T16:23:22.607Z,35.38
2018-07-20T16:24:22.536Z,35.69
2018-07-20T16:26:15.873Z,35.69
2018-07-20T16:27:15.782Z,35.57
2018-07-20T16:29:09.078Z,35.57
2018-07-20T16:30:09.028Z,36.25
2018-07-20T16:32:03.335Z,36.16
2018-07-20T16:33:03.260Z,35.96
2018-07-20T16:34:56.560Z,36.74
2018-07-20T16:35:56.532Z,36.35
2018-07-20T16:37:49.823Z,36.35
2018-07-20T16:38:49.754Z,36.16
2018-07-20T16:40:43.051Z,36.45
2018-07-20T16:41:42.999Z,35.67
2018-07-20T16:43:36.378Z,35.88
2018-07-20T16:44:36.307Z,35.39
2018-07-20T16:46:29.605Z,34.89
2018-07-20T16:47:29.553Z,34.79
2018-07-20T16:49:22.871Z,35.08
2018-07-20T16:50:22.799Z,35.57
2018-07-20T16:52:16.118Z,35.38
2018-07-20T16:53:16.047Z,35.28
2018-07-20T16:55:09.341Z,35.08
2018-07-20T16:56:09.290Z,34.99
2018-07-20T16:58:02.601Z,34.99
2018-07-20T16:59:02.580Z,35.47
2018-07-20T17:00:55.829Z,35.00
2018-07-20T17:01:55.777Z,34.50
2018-07-20T17:03:49.094Z,34.59
2018-07-20T17:04:49.025Z,34.50
2018-07-20T17:06:42.359Z,34.31
2018-07-20T17:07:42.311Z,33.62
2018-07-20T17:09:35.625Z,34.69
2018-07-20T17:10:35.564Z,34.50
2018-07-20T17:12:28.852Z,34.99
2018-07-20T17:13:28.801Z,34.69
2018-07-20T17:15:22.117Z,34.31
2018-07-20T17:16:22.047Z,34.11
2018-07-20T17:18:15.369Z,34.12
2018-07-20T17:19:15.308Z,33.92
2018-07-20T17:21:08.680Z,34.32
2018-07-20T17:22:08.593Z,34.03
2018-07-20T17:24:01.918Z,33.64
2018-07-20T17:25:01.838Z,33.64
2018-07-20T17:26:55.137Z,33.44
2018-07-20T17:27:55.130Z,33.64
2018-07-20T17:29:48.405Z,33.44
2018-07-20T17:30:48.334Z,33.56
2018-07-20T17:32:41.633Z,33.64
2018-07-20T17:33:41.582Z,34.11
2018-07-20T17:35:34.900Z,34.01
2018-07-20T17:36:34.830Z,34.01
2018-07-20T17:38:28.119Z,34.59
2018-07-20T17:39:28.069Z,34.01
2018-07-20T17:41:21.386Z,34.40
2018-07-20T17:42:21.316Z,34.21
2018-07-20T17:44:14.643Z,33.92
2018-07-20T17:45:14.581Z,34.31
2018-07-20T17:47:07.869Z,33.92
2018-07-20T17:48:07.818Z,34.11
2018-07-20T17:50:01.233Z,34.89
2018-07-20T17:51:01.065Z,34.79
2018-07-20T17:52:54.363Z,35.46
2018-07-20T17:53:54.312Z,35.36
2018-07-20T17:55:47.630Z,34.88
2018-07-20T17:56:47.558Z,35.06
2018-07-20T17:58:40.850Z,35.86
2018-07-20T17:59:40.801Z,35.28
2018-07-20T18:01:34.113Z,34.89
2018-07-20T18:02:34.043Z,34.97
2018-07-20T18:04:27.340Z,34.88
2018-07-20T18:05:27.288Z,34.79
2018-07-20T18:07:20.604Z,34.88
2018-07-20T18:08:20.534Z,34.78
2018-07-20T18:10:13.849Z,35.16
2018-07-20T18:11:13.781Z,35.36
2018-07-20T18:13:07.077Z,35.75
2018-07-20T18:14:07.025Z,35.65
2018-07-20T18:16:00.374Z,35.65
2018-07-20T18:17:00.305Z,36.14
2018-07-20T18:18:54.591Z,36.04
2018-07-20T18:19:54.544Z,36.04
2018-07-20T18:21:47.852Z,36.24
2018-07-20T18:22:47.782Z,35.94
2018-07-20T18:24:41.080Z,35.94
2018-07-20T18:25:41.028Z,35.53
2018-07-20T18:27:34.376Z,36.22
2018-07-20T18:28:34.305Z,36.61
2018-07-20T18:30:27.600Z,36.80
2018-07-20T18:31:27.550Z,36.71
2018-07-20T18:33:20.863Z,36.80
2018-07-20T18:34:20.792Z,36.80
2018-07-20T18:36:14.111Z,37.10
2018-07-20T18:37:14.034Z,36.80
2018-07-20T18:39:07.334Z,37.58
2018-07-20T18:40:07.282Z,37.77
2018-07-20T18:42:00.648Z,37.95
2018-07-20T18:43:00.523Z,38.05
2018-07-20T18:44:53.825Z,38.42
2018-07-20T18:45:53.767Z,38.52
2018-07-20T18:47:47.081Z,38.81
2018-07-20T18:48:47.010Z,38.42
2018-07-20T18:50:40.354Z,38.62
2018-07-20T18:51:40.302Z,38.81
2018-07-20T18:53:33.615Z,39.29
2018-07-20T18:54:33.544Z,39.20
2018-07-20T18:56:26.841Z,39.10
2018-07-20T18:57:26.784Z,39.18
2018-07-20T18:59:20.099Z,39.28
2018-07-20T19:00:20.026Z,39.57
2018-07-20T19:02:13.339Z,39.47
2018-07-20T19:03:13.267Z,39.57
2018-07-20T19:05:06.562Z,39.08
2018-07-20T19:06:06.509Z,39.47
2018-07-20T19:07:59.813Z,38.79
2018-07-20T19:08:59.740Z,38.87
2018-07-20T19:10:53.039Z,38.77
2018-07-20T19:11:52.980Z,38.57
2018-07-20T19:13:46.375Z,38.29
2018-07-20T19:14:46.303Z,38.29
2018-07-20T19:16:39.596Z,38.07
2018-07-20T19:17:39.543Z,37.98
2018-07-20T19:19:32.953Z,37.98
2018-07-20T19:20:32.782Z,38.27
2018-07-20T19:22:26.095Z,38.17
2018-07-20T19:23:26.021Z,38.85
2018-07-20T19:25:19.314Z,38.27
2018-07-20T19:26:19.259Z,38.27
2018-07-20T19:28:12.563Z,38.27
2018-07-20T19:29:12.490Z,38.06
2018-07-20T19:31:05.784Z,38.34
2018-07-20T19:32:05.729Z,37.96
2018-07-20T19:33:59.075Z,38.15
2018-07-20T19:34:58.969Z,38.06
2018-07-20T19:36:52.353Z,37.86
2018-07-20T19:37:52.299Z,38.64
2018-07-20T19:39:45.663Z,38.54
2018-07-20T19:40:45.537Z,38.93
2018-07-20T19:42:38.844Z,39.11
2018-07-20T19:43:38.773Z,38.71
2018-07-20T19:45:32.086Z,38.83
2018-07-20T19:46:32.072Z,38.71
2018-07-20T19:48:25.330Z,39.11
2018-07-20T19:49:25.254Z,39.20
2018-07-20T19:51:18.546Z,39.01
2018-07-20T19:52:18.505Z,39.39
2018-07-20T19:54:11.804Z,39.49
2018-07-20T19:55:11.730Z,39.49
2018-07-20T19:57:05.022Z,39.59
2018-07-20T19:58:04.965Z,39.37
2018-07-20T19:59:57.789Z,40.44
2018-07-20T20:00:57.718Z,39.86
2018-07-20T20:02:51.604Z,40.34
2018-07-20T20:03:50.952Z,40.44
2018-07-20T20:05:44.374Z,40.34
2018-07-20T20:06:44.298Z,40.83
2018-07-20T20:08:37.601Z,40.44
2018-07-20T20:09:37.525Z,40.54
2018-07-20T20:11:30.816Z,40.71
2018-07-20T20:12:30.761Z,40.71
2018-07-20T20:14:24.070Z,41.10
2018-07-20T20:15:24.018Z,41.20
2018-07-20T20:17:17.292Z,41.41
2018-07-20T20:18:17.243Z,41.30
2018-07-20T20:20:10.548Z,41.22
2018-07-20T20:21:10.466Z,41.39
2018-07-20T20:23:03.761Z,41.20
2018-07-20T20:24:03.709Z,41.58
2018-07-20T20:25:57.017Z,41.88
2018-07-20T20:26:56.943Z,41.97
2018-07-20T20:28:50.244Z,41.95
2018-07-20T20:29:50.177Z,42.05
2018-07-20T20:31:43.465Z,42.63
2018-07-20T20:32:43.406Z,42.63
2018-07-20T20:34:36.717Z,42.92
2018-07-20T20:35:36.644Z,42.92
2018-07-20T20:37:29.932Z,42.85
2018-07-20T20:38:29.878Z,43.02
2018-07-20T20:40:23.187Z,43.21
2018-07-20T20:41:23.112Z,43.50
2018-07-20T20:43:16.404Z,43.60
2018-07-20T20:44:16.347Z,44.09
2018-07-20T20:46:09.758Z,43.99
2018-07-20T20:47:09.583Z,43.99
2018-07-20T20:49:02.892Z,43.79
2018-07-20T20:50:02.822Z,43.77
2018-07-20T20:51:56.107Z,44.06
2018-07-20T20:52:56.053Z,43.68
2018-07-20T20:54:49.361Z,43.87
2018-07-20T20:55:49.289Z,43.58
2018-07-20T20:57:42.579Z,43.87
2018-07-20T20:58:42.523Z,43.87
2018-07-20T21:00:35.832Z,43.87
2018-07-20T21:01:35.759Z,44.16
2018-07-20T21:03:29.046Z,44.45
2018-07-20T21:04:28.996Z,44.45
2018-07-20T21:06:22.371Z,44.35
2018-07-20T21:07:22.296Z,44.45
2018-07-20T21:09:15.608Z,44.72
2018-07-20T21:10:15.529Z,44.74
2018-07-20T21:12:08.980Z,44.81
2018-07-20T21:13:08.767Z,45.10
2018-07-20T21:15:02.072Z,45.59
2018-07-20T21:16:01.998Z,45.59
2018-07-20T21:17:55.278Z,45.78
2018-07-20T21:18:55.222Z,46.08
2018-07-20T21:20:48.529Z,45.78
2018-07-20T21:21:48.456Z,45.78
2018-07-20T21:23:41.744Z,45.88
2018-07-20T21:24:41.687Z,45.68
2018-07-20T21:26:34.995Z,45.37
2018-07-20T21:27:34.921Z,46.17
2018-07-20T21:29:28.229Z,46.44
2018-07-20T21:30:28.153Z,46.26
2018-07-20T21:32:21.443Z,46.25
2018-07-20T21:33:21.387Z,46.15
2018-07-20T21:35:14.693Z,46.53
2018-07-20T21:36:14.622Z,46.53
2018-07-20T21:38:07.912Z,46.66
2018-07-20T21:39:07.857Z,46.17
2018-07-20T21:41:01.165Z,46.25
2018-07-20T21:42:01.086Z,46.25
2018-07-20T21:43:54.375Z,46.34
2018-07-20T21:44:54.320Z,46.63
2018-07-20T21:46:47.626Z,46.73
2018-07-20T21:47:47.549Z,46.44
2018-07-20T21:49:40.858Z,46.44
2018-07-20T21:50:40.785Z,46.83
2018-07-20T21:52:34.072Z,47.28
2018-07-20T21:53:34.016Z,46.90
2018-07-20T21:55:27.324Z,47.11
2018-07-20T21:56:27.250Z,47.41
2018-07-20T21:58:20.530Z,47.89
2018-07-20T21:59:20.472Z,47.86
2018-07-20T22:01:13.789Z,48.37
2018-07-20T22:02:13.705Z,48.25
2018-07-20T22:04:06.995Z,48.25
2018-07-20T22:05:06.938Z,48.86
2018-07-20T22:07:00.246Z,48.74
2018-07-20T22:08:00.171Z,48.74
2018-07-20T22:09:53.478Z,48.35
2018-07-20T22:10:53.404Z,48.83
2018-07-20T22:12:46.697Z,49.12
2018-07-20T22:13:46.640Z,48.93
2018-07-20T22:15:39.946Z,49.12
2018-07-20T22:16:39.870Z,49.29
2018-07-20T22:18:33.167Z,50.16
2018-07-20T22:19:33.110Z,49.97
2018-07-20T22:21:26.416Z,49.77
2018-07-20T22:22:26.342Z,49.87
2018-07-20T22:24:19.638Z,49.68
2018-07-20T22:25:19.575Z,49.87
2018-07-20T22:27:12.881Z,50.35
2018-07-20T22:28:12.807Z,49.87
2018-07-20T22:30:06.113Z,50.26
2018-07-20T22:31:06.041Z,50.26
2018-07-20T22:32:59.326Z,50.07
2018-07-20T22:33:59.269Z,50.07
2018-07-20T22:35:52.576Z,50.07
2018-07-20T22:36:52.501Z,50.26
2018-07-20T22:38:45.778Z,49.68
2018-07-20T22:39:45.723Z,50.16
2018-07-20T22:41:39.032Z,50.16
2018-07-20T22:42:38.955Z,49.97
2018-07-20T22:44:32.401Z,49.97
2018-07-20T22:45:32.297Z,50.07
2018-07-20T22:47:25.607Z,50.45
2018-07-20T22:48:25.528Z,50.65
2018-07-20T22:50:18.834Z,50.45
2018-07-20T22:51:18.758Z,50.45
2018-07-20T22:53:12.046Z,51.51
2018-07-20T22:54:11.990Z,51.23
2018-07-20T22:56:05.297Z,51.23
2018-07-20T22:57:05.222Z,51.23
2018-07-20T22:58:58.508Z,51.23
2018-07-20T22:59:58.450Z,51.61
2018-07-20T23:01:51.758Z,52.19
2018-07-20T23:02:51.689Z,52.29
2018-07-20T23:04:44.971Z,52.09
2018-07-20T23:05:44.914Z,52.07
2018-07-20T23:07:38.221Z,52.45
2018-07-20T23:08:38.145Z,52.07
2018-07-20T23:10:31.449Z,53.13
2018-07-20T23:11:31.378Z,52.94
2018-07-20T23:13:24.663Z,53.03
2018-07-20T23:14:24.606Z,53.13
2018-07-20T23:16:17.913Z,53.13
2018-07-20T23:17:17.837Z,53.33
2018-07-20T23:19:11.125Z,53.61
2018-07-20T23:20:11.071Z,53.33
2018-07-20T23:22:04.377Z,53.91
2018-07-20T23:23:04.299Z,53.52
2018-07-20T23:24:57.585Z,53.81
2018-07-20T23:25:57.529Z,53.52
2018-07-20T23:27:50.835Z,54.39
2018-07-20T23:28:50.758Z,54.49
2018-07-20T23:30:44.064Z,55.04
2018-07-20T23:31:43.988Z,55.62
2018-07-20T23:33:37.275Z,56.87
2018-07-20T23:34:37.219Z,57.26
2018-07-20T23:36:30.524Z,56.58
2018-07-20T23:37:30.497Z,56.87
2018-07-20T23:39:23.734Z,56.68
2018-07-20T23:40:23.677Z,56.58
2018-07-20T23:42:16.982Z,57.26
2018-07-20T23:43:16.906Z,57.64
2018-07-20T23:45:10.192Z,58.42
2018-07-20T23:46:10.134Z,58.61
2018-07-20T23:48:03.434Z,58.80
2018-07-20T23:49:03.356Z,59.55
2018-07-20T23:50:56.661Z,59.83
2018-07-20T23:51:56.592Z,60.03
2018-07-20T23:53:49.873Z,60.80
2018-07-20T23:54:49.813Z,61.96
2018-07-20T23:56:43.117Z,60.89
2018-07-20T23:57:43.041Z,61.86
2018-07-20T23:59:36.367Z,62.73
